sensor_id;sensor_type;location;lat;lon;timestamp;pressure;altitude;pressure_sealevel;temperature;humidity
7940;BME280;4015;48.888;9.226;2023-02-28T00:02:16;155069.72;;;-0.76;64.46
7940;BME280;4015;48.888;9.226;2023-02-28T00:04:43;155092.56;;;-0.67;64.84
7940;BME280;4015;48.888;9.226;2023-02-28T00:07:08;155082.41;;;-0.71;64.77
7940;BME280;4015;48.888;9.226;2023-02-28T00:09:34;155081.16;;;-0.71;64.97
7940;BME280;4015;48.888;9.226;2023-02-28T00:12:00;155074.84;;;-0.74;65.24
7940;BME280;4015;48.888;9.226;2023-02-28T00:14:25;155057.09;;;-0.81;65.36
7940;BME280;4015;48.888;9.226;2023-02-28T00:16:50;155057.09;;;-0.81;65.38
7940;BME280;4015;48.888;9.226;2023-02-28T00:19:16;155035.53;;;-0.90;65.96
7940;BME280;4015;48.888;9.226;2023-02-28T00:21:41;155039.31;;;-0.88;66.27
7940;BME280;4015;48.888;9.226;2023-02-28T00:24:07;155045.69;;;-0.86;65.95
7940;BME280;4015;48.888;9.226;2023-02-28T00:26:33;155010.22;;;-1.00;66.99
7940;BME280;4015;48.888;9.226;2023-02-28T00:28:58;155048.22;;;-0.85;66.90
7940;BME280;4015;48.888;9.226;2023-02-28T00:31:23;155045.69;;;-0.86;66.66
7940;BME280;4015;48.888;9.226;2023-02-28T00:33:49;155060.88;;;-0.79;66.74
7940;BME280;4015;48.888;9.226;2023-02-28T00:36:16;155029.22;;;-0.92;67.28
7940;BME280;4015;48.888;9.226;2023-02-28T00:38:41;155033.00;;;-0.91;67.33
7940;BME280;4015;48.888;9.226;2023-02-28T00:41:07;155060.88;;;-0.79;67.46
7940;BME280;4015;48.888;9.226;2023-02-28T00:43:37;155048.22;;;-0.85;67.53
7940;BME280;4015;48.888;9.226;2023-02-28T00:46:03;155029.22;;;-0.92;67.87
7940;BME280;4015;48.888;9.226;2023-02-28T00:48:28;155039.31;;;-0.88;67.91
7940;BME280;4015;48.888;9.226;2023-02-28T00:50:54;155010.22;;;-1.00;68.72
7940;BME280;4015;48.888;9.226;2023-02-28T00:53:21;155001.31;;;-1.03;68.85
7940;BME280;4015;48.888;9.226;2023-02-28T00:55:47;155006.38;;;-1.01;69.13
7940;BME280;4015;48.888;9.226;2023-02-28T00:58:12;155001.31;;;-1.03;69.33
7940;BME280;4015;48.888;9.226;2023-02-28T01:00:37;154998.78;;;-1.04;69.25
7940;BME280;4015;48.888;9.226;2023-02-28T01:03:03;154993.75;;;-1.06;70.15
7940;BME280;4015;48.888;9.226;2023-02-28T01:05:28;154992.44;;;-1.07;70.02
7940;BME280;4015;48.888;9.226;2023-02-28T01:07:53;155010.22;;;-1.00;69.84
7940;BME280;4015;48.888;9.226;2023-02-28T01:10:19;155006.38;;;-1.01;70.20
7940;BME280;4015;48.888;9.226;2023-02-28T01:12:45;154989.91;;;-1.08;70.17
7940;BME280;4015;48.888;9.226;2023-02-28T01:15:11;154988.66;;;-1.09;70.40
7940;BME280;4015;48.888;9.226;2023-02-28T01:17:36;154995.00;;;-1.06;70.05
7940;BME280;4015;48.888;9.226;2023-02-28T01:20:02;154975.97;;;-1.14;70.39
7940;BME280;4015;48.888;9.226;2023-02-28T01:22:28;154987.38;;;-1.09;70.50
7940;BME280;4015;48.888;9.226;2023-02-28T01:24:53;155000.06;;;-1.04;70.65
7940;BME280;4015;48.888;9.226;2023-02-28T01:27:19;154995.00;;;-1.06;70.46
7940;BME280;4015;48.888;9.226;2023-02-28T01:29:44;155016.53;;;-0.97;70.09
7940;BME280;4015;48.888;9.226;2023-02-28T01:32:10;155021.59;;;-0.95;70.43
7940;BME280;4015;48.888;9.226;2023-02-28T01:34:35;155006.38;;;-1.01;70.50
7940;BME280;4015;48.888;9.226;2023-02-28T01:37:00;155022.84;;;-0.95;70.66
7940;BME280;4015;48.888;9.226;2023-02-28T01:39:26;154991.19;;;-1.08;70.73
7940;BME280;4015;48.888;9.226;2023-02-28T01:41:51;154986.13;;;-1.10;71.14
7940;BME280;4015;48.888;9.226;2023-02-28T01:47:19;155012.75;;;-0.99;70.92
7940;BME280;4015;48.888;9.226;2023-02-28T01:49:45;155014.00;;;-0.98;71.14
7940;BME280;4015;48.888;9.226;2023-02-28T01:52:11;155015.28;;;-0.98;70.48
7940;BME280;4015;48.888;9.226;2023-02-28T01:54:43;155031.75;;;-0.91;70.82
7940;BME280;4015;48.888;9.226;2023-02-28T01:57:14;155024.16;;;-0.94;71.00
7940;BME280;4015;48.888;9.226;2023-02-28T01:59:44;155015.28;;;-0.98;70.81
7940;BME280;4015;48.888;9.226;2023-02-28T02:02:13;155029.22;;;-0.92;70.66
7940;BME280;4015;48.888;9.226;2023-02-28T02:04:46;155039.31;;;-0.88;70.48
7940;BME280;4015;48.888;9.226;2023-02-28T02:07:13;155020.31;;;-0.96;70.63
7940;BME280;4015;48.888;9.226;2023-02-28T02:09:39;155025.41;;;-0.94;71.54
7940;BME280;4015;48.888;9.226;2023-02-28T02:12:35;154998.78;;;-1.04;71.51
7940;BME280;4015;48.888;9.226;2023-02-28T02:15:09;155014.00;;;-0.98;71.12
7940;BME280;4015;48.888;9.226;2023-02-28T02:17:53;155039.31;;;-0.88;71.03
7940;BME280;4015;48.888;9.226;2023-02-28T02:20:37;155039.31;;;-0.88;71.29
7940;BME280;4015;48.888;9.226;2023-02-28T02:25:56;155007.63;;;-1.01;71.85
7940;BME280;4015;48.888;9.226;2023-02-28T02:31:08;154987.38;;;-1.09;71.98
7940;BME280;4015;48.888;9.226;2023-02-28T02:34:22;155012.75;;;-0.99;72.13
7940;BME280;4015;48.888;9.226;2023-02-28T02:36:59;154978.53;;;-1.13;72.37
7940;BME280;4015;48.888;9.226;2023-02-28T02:39:49;155008.94;;;-1.00;72.39
7940;BME280;4015;48.888;9.226;2023-02-28T02:42:23;155005.13;;;-1.02;72.52
7940;BME280;4015;48.888;9.226;2023-02-28T02:44:58;154991.19;;;-1.08;72.66
7940;BME280;4015;48.888;9.226;2023-02-28T02:47:28;155012.75;;;-0.99;72.99
7940;BME280;4015;48.888;9.226;2023-02-28T02:49:57;155022.84;;;-0.95;73.25
7940;BME280;4015;48.888;9.226;2023-02-28T02:52:30;155015.28;;;-0.98;73.20
7940;BME280;4015;48.888;9.226;2023-02-28T02:54:58;155045.69;;;-0.86;72.87
7940;BME280;4015;48.888;9.226;2023-02-28T02:57:32;155069.72;;;-0.76;72.57
7940;BME280;4015;48.888;9.226;2023-02-28T02:59:59;155063.41;;;-0.78;72.69
7940;BME280;4015;48.888;9.226;2023-02-28T03:02:28;155076.09;;;-0.73;72.49
7940;BME280;4015;48.888;9.226;2023-02-28T03:05:02;155068.47;;;-0.76;72.55
7940;BME280;4015;48.888;9.226;2023-02-28T03:07:29;155090.03;;;-0.68;72.43
7940;BME280;4015;48.888;9.226;2023-02-28T03:09:56;155084.94;;;-0.70;72.91
7940;BME280;4015;48.888;9.226;2023-02-28T03:12:41;155096.34;;;-0.65;72.67
7940;BME280;4015;48.888;9.226;2023-02-28T03:15:26;155084.94;;;-0.70;72.58
7940;BME280;4015;48.888;9.226;2023-02-28T03:18:08;155093.84;;;-0.66;72.46
7940;BME280;4015;48.888;9.226;2023-02-28T03:26:04;155139.47;;;-0.48;72.64
7940;BME280;4015;48.888;9.226;2023-02-28T03:28:41;155104.00;;;-0.62;72.55
7940;BME280;4015;48.888;9.226;2023-02-28T03:31:17;155131.84;;;-0.51;72.24
7940;BME280;4015;48.888;9.226;2023-02-28T03:33:51;155149.63;;;-0.44;72.52
7940;BME280;4015;48.888;9.226;2023-02-28T03:36:23;155128.03;;;-0.52;72.36
7940;BME280;4015;48.888;9.226;2023-02-28T03:39:02;155147.03;;;-0.45;72.08
7940;BME280;4015;48.888;9.226;2023-02-28T03:41:33;155163.53;;;-0.38;71.87
7940;BME280;4015;48.888;9.226;2023-02-28T03:44:05;155147.03;;;-0.45;72.12
7940;BME280;4015;48.888;9.226;2023-02-28T03:46:36;155138.19;;;-0.48;72.41
7940;BME280;4015;48.888;9.226;2023-02-28T03:49:11;155139.47;;;-0.48;72.69
7940;BME280;4015;48.888;9.226;2023-02-28T03:51:40;155121.72;;;-0.55;72.52
7940;BME280;4015;48.888;9.226;2023-02-28T03:54:11;155110.31;;;-0.60;72.96
7940;BME280;4015;48.888;9.226;2023-02-28T03:56:41;155101.41;;;-0.63;72.67
7940;BME280;4015;48.888;9.226;2023-02-28T03:59:22;155124.25;;;-0.54;72.41
7940;BME280;4015;48.888;9.226;2023-02-28T04:01:51;155138.19;;;-0.48;72.53
7940;BME280;4015;48.888;9.226;2023-02-28T04:04:17;155152.16;;;-0.43;72.35
7940;BME280;4015;48.888;9.226;2023-02-28T04:06:43;155143.25;;;-0.46;72.67
7940;BME280;4015;48.888;9.226;2023-02-28T04:09:12;155169.91;;;-0.36;72.45
7940;BME280;4015;48.888;9.226;2023-02-28T04:11:44;155174.94;;;-0.34;72.19
7940;BME280;4015;48.888;9.226;2023-02-28T04:14:10;155192.69;;;-0.27;71.98
7940;BME280;4015;48.888;9.226;2023-02-28T04:16:38;155187.63;;;-0.29;71.92
7940;BME280;4015;48.888;9.226;2023-02-28T04:19:05;155181.31;;;-0.31;71.87
7940;BME280;4015;48.888;9.226;2023-02-28T04:23:58;155210.44;;;-0.19;71.73
7940;BME280;4015;48.888;9.226;2023-02-28T04:26:36;155197.78;;;-0.24;71.84
7940;BME280;4015;48.888;9.226;2023-02-28T04:29:07;155224.38;;;-0.14;71.57
7940;BME280;4015;48.888;9.226;2023-02-28T04:31:33;155200.31;;;-0.23;71.51
7940;BME280;4015;48.888;9.226;2023-02-28T04:34:00;155215.53;;;-0.17;71.92
7940;BME280;4015;48.888;9.226;2023-02-28T04:36:25;155223.13;;;-0.14;71.64
7940;BME280;4015;48.888;9.226;2023-02-28T04:38:51;155220.59;;;-0.15;71.44
7940;BME280;4015;48.888;9.226;2023-02-28T04:41:17;155201.59;;;-0.23;71.83
7940;BME280;4015;48.888;9.226;2023-02-28T04:43:42;155228.22;;;-0.12;71.57
7940;BME280;4015;48.888;9.226;2023-02-28T04:46:08;155238.34;;;-0.08;71.47
7940;BME280;4015;48.888;9.226;2023-02-28T04:48:36;155239.59;;;-0.08;71.49
7940;BME280;4015;48.888;9.226;2023-02-28T04:51:06;155254.81;;;-0.02;71.32
7940;BME280;4015;48.888;9.226;2023-02-28T04:53:33;155258.66;;;0.00;71.45
7940;BME280;4015;48.888;9.226;2023-02-28T04:56:00;155244.69;;;-0.06;71.54
7940;BME280;4015;48.888;9.226;2023-02-28T04:58:25;155261.19;;;0.01;71.26
7940;BME280;4015;48.888;9.226;2023-02-28T05:00:52;155242.13;;;-0.07;71.24
7940;BME280;4015;48.888;9.226;2023-02-28T05:03:18;155221.84;;;-0.15;71.84
7940;BME280;4015;48.888;9.226;2023-02-28T05:05:43;155229.50;;;-0.12;72.04
7940;BME280;4015;48.888;9.226;2023-02-28T05:08:08;155253.53;;;-0.02;71.64
7940;BME280;4015;48.888;9.226;2023-02-28T05:10:34;155256.06;;;-0.01;71.74
7940;BME280;4015;48.888;9.226;2023-02-28T05:13:00;155277.66;;;0.08;71.50
7940;BME280;4015;48.888;9.226;2023-02-28T05:15:25;155291.63;;;0.13;71.06
7940;BME280;4015;48.888;9.226;2023-02-28T05:17:50;155285.25;;;0.11;71.11
7940;BME280;4015;48.888;9.226;2023-02-28T05:20:16;155319.47;;;0.24;70.99
7940;BME280;4015;48.888;9.226;2023-02-28T05:22:42;155303.00;;;0.18;70.58
7940;BME280;4015;48.888;9.226;2023-02-28T05:25:12;155339.81;;;0.33;70.49
7940;BME280;4015;48.888;9.226;2023-02-28T05:27:39;155324.59;;;0.26;70.84
7940;BME280;4015;48.888;9.226;2023-02-28T05:30:06;155310.63;;;0.21;70.84
7940;BME280;4015;48.888;9.226;2023-02-28T05:32:32;155351.19;;;0.37;70.63
7940;BME280;4015;48.888;9.226;2023-02-28T05:34:57;155330.91;;;0.29;70.63
7940;BME280;4015;48.888;9.226;2023-02-28T05:37:22;155323.31;;;0.26;70.70
7940;BME280;4015;48.888;9.226;2023-02-28T05:39:47;155313.16;;;0.22;70.07
7940;BME280;4015;48.888;9.226;2023-02-28T05:42:13;155309.38;;;0.20;70.48
7940;BME280;4015;48.888;9.226;2023-02-28T05:44:38;155318.22;;;0.24;70.60
7940;BME280;4015;48.888;9.226;2023-02-28T05:47:04;155360.09;;;0.41;70.12
7940;BME280;4015;48.888;9.226;2023-02-28T05:49:29;155319.47;;;0.24;70.44
7940;BME280;4015;48.888;9.226;2023-02-28T05:51:54;155292.88;;;0.14;71.04
7940;BME280;4015;48.888;9.226;2023-02-28T05:54:19;155303.00;;;0.18;70.65
7940;BME280;4015;48.888;9.226;2023-02-28T05:56:45;155324.59;;;0.26;70.45
7940;BME280;4015;48.888;9.226;2023-02-28T05:59:13;155310.63;;;0.21;70.73
7940;BME280;4015;48.888;9.226;2023-02-28T06:01:41;155295.41;;;0.15;70.70
7940;BME280;4015;48.888;9.226;2023-02-28T06:04:09;155270.03;;;0.05;70.95
7940;BME280;4015;48.888;9.226;2023-02-28T06:06:35;155271.28;;;0.05;70.71
7940;BME280;4015;48.888;9.226;2023-02-28T06:09:05;155290.34;;;0.13;71.02
7940;BME280;4015;48.888;9.226;2023-02-28T06:11:31;155324.59;;;0.26;70.26
7940;BME280;4015;48.888;9.226;2023-02-28T06:13:58;155316.94;;;0.23;69.98
7940;BME280;4015;48.888;9.226;2023-02-28T06:16:25;155334.69;;;0.31;70.35
7940;BME280;4015;48.888;9.226;2023-02-28T06:18:50;155339.81;;;0.33;69.71
7940;BME280;4015;48.888;9.226;2023-02-28T06:21:17;155300.47;;;0.17;69.81
7940;BME280;4015;48.888;9.226;2023-02-28T06:23:43;155330.91;;;0.29;69.85
7940;BME280;4015;48.888;9.226;2023-02-28T06:26:09;155339.81;;;0.33;69.85
7940;BME280;4015;48.888;9.226;2023-02-28T06:28:34;155349.91;;;0.37;69.89
7940;BME280;4015;48.888;9.226;2023-02-28T06:30:59;155324.59;;;0.26;69.63
7940;BME280;4015;48.888;9.226;2023-02-28T06:33:25;155329.66;;;0.29;69.93
7940;BME280;4015;48.888;9.226;2023-02-28T06:35:51;155322.06;;;0.25;70.06
7940;BME280;4015;48.888;9.226;2023-02-28T06:38:16;155357.56;;;0.40;69.47
7940;BME280;4015;48.888;9.226;2023-02-28T06:40:43;155409.56;;;0.61;69.46
7940;BME280;4015;48.888;9.226;2023-02-28T06:43:09;155395.59;;;0.55;68.95
7940;BME280;4015;48.888;9.226;2023-02-28T06:45:41;155341.06;;;0.33;69.63
7940;BME280;4015;48.888;9.226;2023-02-28T06:48:07;155362.63;;;0.42;68.99
7940;BME280;4015;48.888;9.226;2023-02-28T06:50:32;155391.78;;;0.53;69.06
7940;BME280;4015;48.888;9.226;2023-02-28T06:52:58;155418.44;;;0.64;68.75
7940;BME280;4015;48.888;9.226;2023-02-28T06:55:23;155409.56;;;0.61;68.97
7940;BME280;4015;48.888;9.226;2023-02-28T06:57:48;155427.31;;;0.68;68.45
7940;BME280;4015;48.888;9.226;2023-02-28T07:00:15;155431.16;;;0.69;67.86
7940;BME280;4015;48.888;9.226;2023-02-28T07:02:41;155451.44;;;0.77;68.60
7940;BME280;4015;48.888;9.226;2023-02-28T07:05:07;155457.75;;;0.80;68.25
7940;BME280;4015;48.888;9.226;2023-02-28T07:07:32;155446.31;;;0.75;68.21
7940;BME280;4015;48.888;9.226;2023-02-28T07:09:58;155428.56;;;0.68;68.30
7940;BME280;4015;48.888;9.226;2023-02-28T07:12:23;155445.06;;;0.75;68.17
7940;BME280;4015;48.888;9.226;2023-02-28T07:14:49;155442.53;;;0.74;68.50
7940;BME280;4015;48.888;9.226;2023-02-28T07:17:14;155434.94;;;0.71;68.76
7940;BME280;4015;48.888;9.226;2023-02-28T07:19:40;155431.16;;;0.69;68.74
7940;BME280;4015;48.888;9.226;2023-02-28T07:22:05;155432.41;;;0.70;68.54
7940;BME280;4015;48.888;9.226;2023-02-28T07:24:31;155415.91;;;0.63;69.37
7940;BME280;4015;48.888;9.226;2023-02-28T07:26:57;155391.78;;;0.53;68.98
7940;BME280;4015;48.888;9.226;2023-02-28T07:29:22;155415.91;;;0.63;68.54
7940;BME280;4015;48.888;9.226;2023-02-28T07:31:47;155447.63;;;0.76;68.54
7940;BME280;4015;48.888;9.226;2023-02-28T07:34:15;155476.78;;;0.88;67.95
7940;BME280;4015;48.888;9.226;2023-02-28T07:36:40;155420.97;;;0.65;68.46
7940;BME280;4015;48.888;9.226;2023-02-28T07:39:05;155446.31;;;0.75;68.35
7940;BME280;4015;48.888;9.226;2023-02-28T07:41:31;155447.63;;;0.76;67.71
7940;BME280;4015;48.888;9.226;2023-02-28T07:43:59;155422.25;;;0.66;68.30
7940;BME280;4015;48.888;9.226;2023-02-28T07:46:25;155443.78;;;0.74;68.70
7940;BME280;4015;48.888;9.226;2023-02-28T07:48:50;155450.16;;;0.77;68.58
7940;BME280;4015;48.888;9.226;2023-02-28T07:51:16;155429.84;;;0.69;68.12
7940;BME280;4015;48.888;9.226;2023-02-28T07:53:42;155429.84;;;0.69;68.37
7940;BME280;4015;48.888;9.226;2023-02-28T07:56:07;155455.22;;;0.79;68.13
7940;BME280;4015;48.888;9.226;2023-02-28T07:58:32;155443.78;;;0.74;68.50
7940;BME280;4015;48.888;9.226;2023-02-28T08:01:08;155443.78;;;0.74;68.09
7940;BME280;4015;48.888;9.226;2023-02-28T08:03:34;155484.41;;;0.91;68.08
7940;BME280;4015;48.888;9.226;2023-02-28T08:06:00;155470.44;;;0.85;68.00
7940;BME280;4015;48.888;9.226;2023-02-28T08:08:27;155500.91;;;0.97;67.75
7940;BME280;4015;48.888;9.226;2023-02-28T08:10:58;155538.97;;;1.13;67.94
7940;BME280;4015;48.888;9.226;2023-02-28T08:13:24;155585.91;;;1.31;67.06
7940;BME280;4015;48.888;9.226;2023-02-28T08:15:50;155568.16;;;1.24;67.56
7940;BME280;4015;48.888;9.226;2023-02-28T08:18:15;155564.34;;;1.23;66.81
7940;BME280;4015;48.888;9.226;2023-02-28T08:20:40;155528.84;;;1.08;67.45
7940;BME280;4015;48.888;9.226;2023-02-28T08:23:06;155563.09;;;1.22;67.19
7940;BME280;4015;48.888;9.226;2023-02-28T08:25:31;155579.59;;;1.29;66.54
7940;BME280;4015;48.888;9.226;2023-02-28T08:27:56;155620.22;;;1.45;66.98
7940;BME280;4015;48.888;9.226;2023-02-28T08:30:22;155591.03;;;1.33;66.35
7940;BME280;4015;48.888;9.226;2023-02-28T08:32:47;155594.81;;;1.35;66.40
7940;BME280;4015;48.888;9.226;2023-02-28T08:35:13;155625.28;;;1.47;65.84
7940;BME280;4015;48.888;9.226;2023-02-28T08:37:38;155654.50;;;1.59;66.22
7940;BME280;4015;48.888;9.226;2023-02-28T08:40:04;155686.22;;;1.72;65.49
7940;BME280;4015;48.888;9.226;2023-02-28T08:42:30;155678.59;;;1.69;65.53
7940;BME280;4015;48.888;9.226;2023-02-28T08:44:55;155730.69;;;1.89;65.57
7940;BME280;4015;48.888;9.226;2023-02-28T08:47:21;155775.06;;;2.07;64.80
7940;BME280;4015;48.888;9.226;2023-02-28T08:49:46;155724.28;;;1.87;65.18
7940;BME280;4015;48.888;9.226;2023-02-28T08:52:12;155778.94;;;2.09;64.84
7940;BME280;4015;48.888;9.226;2023-02-28T08:54:37;155733.22;;;1.91;64.56
7940;BME280;4015;48.888;9.226;2023-02-28T08:57:03;155723.03;;;1.86;64.73
7940;BME280;4015;48.888;9.226;2023-02-28T08:59:29;155776.41;;;2.08;64.29
7940;BME280;4015;48.888;9.226;2023-02-28T09:01:54;155832.25;;;2.30;64.07
7940;BME280;4015;48.888;9.226;2023-02-28T09:04:19;155847.50;;;2.36;63.96
7940;BME280;4015;48.888;9.226;2023-02-28T09:06:44;155856.41;;;2.40;63.84
7940;BME280;4015;48.888;9.226;2023-02-28T09:09:10;155947.88;;;2.77;63.16
7940;BME280;4015;48.888;9.226;2023-02-28T09:11:35;155895.75;;;2.56;62.11
7940;BME280;4015;48.888;9.226;2023-02-28T09:14:01;155921.19;;;2.66;62.48
7940;BME280;4015;48.888;9.226;2023-02-28T09:16:28;155897.03;;;2.56;63.18
7940;BME280;4015;48.888;9.226;2023-02-28T09:18:54;155964.41;;;2.83;62.18
7940;BME280;4015;48.888;9.226;2023-02-28T09:21:19;155996.16;;;2.96;61.32
7940;BME280;4015;48.888;9.226;2023-02-28T09:23:46;155983.44;;;2.91;61.59
7940;BME280;4015;48.888;9.226;2023-02-28T09:26:26;155989.78;;;2.93;61.57
7940;BME280;4015;48.888;9.226;2023-02-28T09:28:53;156019.00;;;3.05;61.15
7940;BME280;4015;48.888;9.226;2023-02-28T09:31:24;156102.88;;;3.39;60.88
7940;BME280;4015;48.888;9.226;2023-02-28T09:33:51;156068.56;;;3.25;60.64
7940;BME280;4015;48.888;9.226;2023-02-28T09:36:17;156118.13;;;3.45;60.59
7940;BME280;4015;48.888;9.226;2023-02-28T09:38:42;156124.53;;;3.47;61.16
7940;BME280;4015;48.888;9.226;2023-02-28T09:41:24;156101.63;;;3.38;60.78
7940;BME280;4015;48.888;9.226;2023-02-28T09:43:55;156048.25;;;3.17;61.93
7940;BME280;4015;48.888;9.226;2023-02-28T09:49:02;156181.69;;;3.70;60.63
7940;BME280;4015;48.888;9.226;2023-02-28T09:51:49;156158.84;;;3.61;60.20
7940;BME280;4015;48.888;9.226;2023-02-28T09:54:19;156245.28;;;3.96;59.83
7940;BME280;4015;48.888;9.226;2023-02-28T09:56:50;156265.66;;;4.04;59.53
7940;BME280;4015;48.888;9.226;2023-02-28T09:59:42;156256.72;;;4.00;59.16
7940;BME280;4015;48.888;9.226;2023-02-28T10:05:27;156275.78;;;4.08;57.20
7940;BME280;4015;48.888;9.226;2023-02-28T10:10:36;156410.66;;;4.62;58.04
7940;BME280;4015;48.888;9.226;2023-02-28T10:15:59;156434.84;;;4.72;55.22
7940;BME280;4015;48.888;9.226;2023-02-28T10:18:30;156497.19;;;4.97;55.39
7940;BME280;4015;48.888;9.226;2023-02-28T10:21:00;156489.53;;;4.94;53.88
7940;BME280;4015;48.888;9.226;2023-02-28T10:23:34;156546.81;;;5.17;53.34
7940;BME280;4015;48.888;9.226;2023-02-28T10:26:09;156593.91;;;5.35;53.47
7940;BME280;4015;48.888;9.226;2023-02-28T10:28:36;156627.00;;;5.49;53.72
7940;BME280;4015;48.888;9.226;2023-02-28T10:31:01;156624.47;;;5.48;53.06
7940;BME280;4015;48.888;9.226;2023-02-28T10:33:33;156536.63;;;5.12;53.70
7940;BME280;4015;48.888;9.226;2023-02-28T10:36:00;156480.63;;;4.90;54.76
7940;BME280;4015;48.888;9.226;2023-02-28T10:38:39;156437.38;;;4.73;55.49
7940;BME280;4015;48.888;9.226;2023-02-28T10:41:07;156474.28;;;4.87;54.78
7940;BME280;4015;48.888;9.226;2023-02-28T10:43:33;156499.75;;;4.98;54.12
7940;BME280;4015;48.888;9.226;2023-02-28T10:46:13;156563.38;;;5.23;53.78
7940;BME280;4015;48.888;9.226;2023-02-28T10:48:41;156685.59;;;5.72;53.72
7940;BME280;4015;48.888;9.226;2023-02-28T10:51:12;156677.94;;;5.69;53.46
7940;BME280;4015;48.888;9.226;2023-02-28T10:53:48;156620.63;;;5.46;53.81
7940;BME280;4015;48.888;9.226;2023-02-28T10:56:22;156632.09;;;5.51;53.76
7940;BME280;4015;48.888;9.226;2023-02-28T10:59:01;156703.41;;;5.79;53.29
7940;BME280;4015;48.888;9.226;2023-02-28T11:03:55;156891.97;;;6.55;51.30
7940;BME280;4015;48.888;9.226;2023-02-28T11:06:25;157072.88;;;7.27;49.92
7940;BME280;4015;48.888;9.226;2023-02-28T11:08:54;157442.75;;;8.75;48.75
7940;BME280;4015;48.888;9.226;2023-02-28T11:11:21;157797.59;;;10.16;46.04
7940;BME280;4015;48.888;9.226;2023-02-28T11:13:51;158211.66;;;11.81;42.44
7940;BME280;4015;48.888;9.226;2023-02-28T11:16:17;158352.31;;;12.37;41.54
7940;BME280;4015;48.888;9.226;2023-02-28T11:18:55;158449.53;;;12.76;39.33
7940;BME280;4015;48.888;9.226;2023-02-28T11:21:28;158509.63;;;13.00;38.20
7940;BME280;4015;48.888;9.226;2023-02-28T11:24:04;158250.03;;;11.97;39.69
7940;BME280;4015;48.888;9.226;2023-02-28T11:26:43;158242.34;;;11.94;40.07
7940;BME280;4015;48.888;9.226;2023-02-28T11:29:29;158417.56;;;12.63;38.99
7940;BME280;4015;48.888;9.226;2023-02-28T11:32:24;158092.75;;;11.34;40.17
7940;BME280;4015;48.888;9.226;2023-02-28T11:37:27;158436.75;;;12.71;39.12
7940;BME280;4015;48.888;9.226;2023-02-28T11:39:53;158498.16;;;12.95;39.60
7940;BME280;4015;48.888;9.226;2023-02-28T11:42:50;158788.69;;;14.11;37.75
7940;BME280;4015;48.888;9.226;2023-02-28T11:51:10;159006.44;;;14.98;35.92
7940;BME280;4015;48.888;9.226;2023-02-28T11:53:55;159117.88;;;15.42;35.65
7940;BME280;4015;48.888;9.226;2023-02-28T11:56:31;159033.34;;;15.08;34.51
7940;BME280;4015;48.888;9.226;2023-02-28T12:06:45;159088.41;;;15.30;34.64
7940;BME280;4015;48.888;9.226;2023-02-28T12:09:32;158554.41;;;13.18;37.29
7940;BME280;4015;48.888;9.226;2023-02-28T12:12:15;158656.88;;;13.59;36.61
7940;BME280;4015;48.888;9.226;2023-02-28T12:17:50;159060.22;;;15.19;34.24
7940;BME280;4015;48.888;9.226;2023-02-28T12:20:59;159011.53;;;15.00;35.52
7940;BME280;4015;48.888;9.226;2023-02-28T12:29:16;158580.06;;;13.28;36.53
7940;BME280;4015;48.888;9.226;2023-02-28T12:32:18;158628.69;;;13.47;36.06
7940;BME280;4015;48.888;9.226;2023-02-28T12:34:58;158490.44;;;12.92;37.31
7940;BME280;4015;48.888;9.226;2023-02-28T12:37:37;158877.09;;;14.46;35.56
7940;BME280;4015;48.888;9.226;2023-02-28T12:40:28;158920.59;;;14.64;35.54
7940;BME280;4015;48.888;9.226;2023-02-28T12:42:56;159188.38;;;15.70;34.11
7940;BME280;4015;48.888;9.226;2023-02-28T12:45:26;159424.22;;;16.64;33.62
7940;BME280;4015;48.888;9.226;2023-02-28T12:47:57;159220.41;;;15.83;33.50
7940;BME280;4015;48.888;9.226;2023-02-28T12:50:24;159087.13;;;15.30;34.50
7940;BME280;4015;48.888;9.226;2023-02-28T12:52:54;159009.00;;;14.99;34.87
7940;BME280;4015;48.888;9.226;2023-02-28T12:55:43;159158.84;;;15.58;33.93
7940;BME280;4015;48.888;9.226;2023-02-28T12:58:29;159074.31;;;15.25;34.44
7940;BME280;4015;48.888;9.226;2023-02-28T13:06:55;159090.97;;;15.31;34.74
7940;BME280;4015;48.888;9.226;2023-02-28T13:09:24;159174.28;;;15.64;34.19
7940;BME280;4015;48.888;9.226;2023-02-28T13:11:52;159103.78;;;15.36;34.35
7940;BME280;4015;48.888;9.226;2023-02-28T13:14:35;159315.25;;;16.21;33.98
7940;BME280;4015;48.888;9.226;2023-02-28T13:19:36;159173.00;;;15.64;34.21
7940;BME280;4015;48.888;9.226;2023-02-28T13:22:03;159298.59;;;16.14;33.60
7940;BME280;4015;48.888;9.226;2023-02-28T13:24:38;159338.34;;;16.30;33.57
7940;BME280;4015;48.888;9.226;2023-02-28T13:29:32;159056.38;;;15.18;34.43
7940;BME280;4015;48.888;9.226;2023-02-28T13:34:31;158935.97;;;14.70;35.64
7940;BME280;4015;48.888;9.226;2023-02-28T13:47:38;158934.69;;;14.69;35.49
7940;BME280;4015;48.888;9.226;2023-02-28T14:06:37;159124.25;;;15.45;33.99
7940;BME280;4015;48.888;9.226;2023-02-28T14:09:26;158975.69;;;14.86;34.08
7940;BME280;4015;48.888;9.226;2023-02-28T14:11:52;158897.56;;;14.54;35.68
7940;BME280;4015;48.888;9.226;2023-02-28T14:17:03;158825.78;;;14.26;35.82
7940;BME280;4015;48.888;9.226;2023-02-28T14:19:31;158800.22;;;14.16;36.27
7940;BME280;4015;48.888;9.226;2023-02-28T14:30:40;158791.22;;;14.12;36.38
7940;BME280;4015;48.888;9.226;2023-02-28T14:36:16;158718.31;;;13.83;37.32
7940;BME280;4015;48.888;9.226;2023-02-28T14:38:48;158641.50;;;13.53;37.91
7940;BME280;4015;48.888;9.226;2023-02-28T14:41:27;158621.00;;;13.44;36.97
7940;BME280;4015;48.888;9.226;2023-02-28T14:43:57;158640.22;;;13.52;37.20
7940;BME280;4015;48.888;9.226;2023-02-28T14:46:26;158727.22;;;13.87;36.58
7940;BME280;4015;48.888;9.226;2023-02-28T14:48:53;158700.34;;;13.76;37.32
7940;BME280;4015;48.888;9.226;2023-02-28T14:51:21;158487.91;;;12.91;37.73
7940;BME280;4015;48.888;9.226;2023-02-28T14:53:50;158403.50;;;12.58;38.61
7940;BME280;4015;48.888;9.226;2023-02-28T14:56:48;158250.03;;;11.97;40.14
7940;BME280;4015;48.888;9.226;2023-02-28T15:01:52;158051.84;;;11.18;41.59
7940;BME280;4015;48.888;9.226;2023-02-28T15:04:25;157927.91;;;10.68;42.04
7940;BME280;4015;48.888;9.226;2023-02-28T15:09:34;157754.16;;;9.99;42.89
7940;BME280;4015;48.888;9.226;2023-02-28T15:11:59;157709.50;;;9.81;43.57
7940;BME280;4015;48.888;9.226;2023-02-28T15:14:26;157630.38;;;9.50;43.97
7940;BME280;4015;48.888;9.226;2023-02-28T15:16:58;157655.88;;;9.60;44.62
7940;BME280;4015;48.888;9.226;2023-02-28T15:19:30;157659.69;;;9.61;43.89
7940;BME280;4015;48.888;9.226;2023-02-28T15:22:08;157580.53;;;9.30;44.91
7940;BME280;4015;48.888;9.226;2023-02-28T15:24:40;157516.72;;;9.04;45.91